SGEN/ENO METAR and TAF weather

Enter ICAO airport designator
Station Type Date Time Source
SGEN METAR 2020/01/22 21:00 UTC NOAA

SGEN 222100Z 14004KT 6000 -DZ OVC008 22/21 Q1006


Station Type Date Time Source
SGEN Decoded METAR 2020/01/22 21:00 UTC NOAA

Encarnacion, Paraguay (SGEN) 27-19S 055-50W 91M
Jan 22, 2020 - 04:00 PM EST / 2020.01.22 2100 UTC
Wind: from the SE (140 degrees) at 5 MPH (4 KT):0
Visibility: 3 mile(s):0
Sky conditions: overcast
Weather: light drizzle
Temperature: 71 F (22 C)
Dew Point: 69 F (21 C)
Relative Humidity: 94%
Pressure (altimeter): 29.71 in. Hg (1006 hPa)
ob: SGEN 222100Z 14004KT 6000 -DZ OVC008 22/21 Q1006
cycle: 21

Station Type Date Time Source
SGEN TAF 2020/01/23 06:00 UTC NOAA

TAF SGEN 220415Z 2306/2406 14004KT 9000 -DZ OVC009 TX30/2319Z TN20/2309Z PROB40 2307/2310 17002KT 5000 BR DZ BKN009
BECMG 2312/2314 14008KT 9999 BKN015
BECMG 2316/2319 9999 BKN027
BECMG 2323/2402 15007KT CAVOK

Example: see airport list